createdAt,value
2023-04-07T00:00:13.745Z,95585.16
2023-04-07T00:02:44.351Z,95589.09
2023-04-07T00:05:12.494Z,95582.44
2023-04-07T00:07:52.239Z,95585.41
2023-04-07T00:10:20.636Z,95584.09
2023-04-07T00:12:49.524Z,95586.22
2023-04-07T00:15:17.530Z,95585.09
2023-04-07T00:17:45.293Z,95585.84
2023-04-07T00:20:13.928Z,95587.06
2023-04-07T00:22:41.620Z,95580.53
2023-04-07T00:25:10.029Z,95604.25
2023-04-07T00:27:37.656Z,95599.50
2023-04-07T00:30:08.424Z,95583.78
2023-04-07T00:32:36.579Z,95590.34
2023-04-07T00:35:04.454Z,95585.78
2023-04-07T00:37:32.532Z,95591.31
2023-04-07T00:40:00.722Z,95591.75
2023-04-07T00:42:28.352Z,95588.63
2023-04-07T00:44:56.519Z,95589.06
2023-04-07T00:47:25.585Z,95581.06
2023-04-07T00:49:53.433Z,95588.78
2023-04-07T00:52:27.224Z,95583.69
2023-04-07T00:54:55.337Z,95582.94
2023-04-07T00:57:23.540Z,95578.59
2023-04-07T00:59:51.534Z,95568.38
2023-04-07T01:02:28.402Z,95568.19
2023-04-07T01:05:03.854Z,95569.03
2023-04-07T01:07:38.397Z,95560.16
2023-04-07T01:10:16.599Z,95570.16
2023-04-07T01:12:58.143Z,95562.25
2023-04-07T01:15:28.716Z,95568.47
2023-04-07T01:18:06.247Z,95561.91
2023-04-07T01:20:36.039Z,95558.88
2023-04-07T01:23:08.363Z,95552.53
2023-04-07T01:25:54.703Z,95553.53
2023-04-07T01:28:50.902Z,95557.91
2023-04-07T01:31:20.055Z,95553.69
2023-04-07T01:33:49.117Z,95549.88
2023-04-07T01:36:17.880Z,95539.31
2023-04-07T01:38:46.752Z,95548.13
2023-04-07T01:41:17.708Z,95542.19
2023-04-07T01:43:47.520Z,95546.00
2023-04-07T01:46:15.643Z,95535.91
2023-04-07T01:48:45.032Z,95534.75
2023-04-07T01:51:17.440Z,95536.53
2023-04-07T01:53:46.479Z,95531.47
2023-04-07T01:56:14.378Z,95531.19
2023-04-07T01:58:42.484Z,95525.41
2023-04-07T02:01:14.491Z,95529.34
2023-04-07T02:03:50.515Z,95524.59
2023-04-07T02:06:21.815Z,95525.25
2023-04-07T02:08:55.339Z,95525.59
2023-04-07T02:11:26.423Z,95523.78
2023-04-07T02:14:01.634Z,95518.75
2023-04-07T02:16:33.382Z,95512.59
2023-04-07T02:21:50.033Z,95509.47
2023-04-07T02:24:21.567Z,95505.56
2023-04-07T02:26:49.658Z,95504.59
2023-04-07T02:29:17.246Z,95507.69
2023-04-07T02:31:45.497Z,95505.44
2023-04-07T02:34:14.454Z,95499.84
2023-04-07T02:36:42.351Z,95497.91
2023-04-07T02:39:10.383Z,95496.25
2023-04-07T02:41:38.411Z,95490.19
2023-04-07T02:44:06.127Z,95495.94
2023-04-07T02:46:34.030Z,95491.69
2023-04-07T02:49:01.712Z,95491.53
2023-04-07T02:51:31.265Z,95493.97
2023-04-07T02:53:58.851Z,95490.53
2023-04-07T02:56:26.578Z,95485.78
2023-04-07T02:58:54.148Z,95486.13
2023-04-07T03:01:22.293Z,95493.00
2023-04-07T03:03:50.350Z,95480.91
2023-04-07T03:06:22.488Z,95474.03
2023-04-07T03:09:04.788Z,95478.44
2023-04-07T03:11:32.484Z,95469.75
2023-04-07T03:14:01.399Z,95466.16
2023-04-07T03:16:31.589Z,95466.47
2023-04-07T03:19:07.473Z,95464.84
2023-04-07T03:21:39.431Z,95464.84
2023-04-07T03:24:09.266Z,95458.59
2023-04-07T03:26:37.329Z,95455.69
2023-04-07T03:29:07.438Z,95453.72
2023-04-07T03:31:35.320Z,95447.16
2023-04-07T03:34:02.862Z,95438.28
2023-04-07T03:36:31.572Z,95449.13
2023-04-07T03:39:03.467Z,95439.13
2023-04-07T03:41:32.578Z,95439.63
2023-04-07T03:44:00.486Z,95430.94
2023-04-07T03:46:29.174Z,95435.84
2023-04-07T03:48:56.730Z,95427.16
2023-04-07T03:51:24.765Z,95431.91
2023-04-07T03:53:56.367Z,95434.06
2023-04-07T03:56:32.887Z,95428.66
2023-04-07T03:59:00.612Z,95431.44
2023-04-07T04:01:36.215Z,95425.38
2023-04-07T04:04:12.511Z,95429.47
2023-04-07T04:06:41.133Z,95430.09
2023-04-07T04:09:43.962Z,95425.84
2023-04-07T04:12:14.618Z,95430.28
2023-04-07T04:14:51.386Z,95425.53
2023-04-07T04:17:19.739Z,95425.34
2023-04-07T04:19:48.084Z,95426.84
2023-04-07T04:22:23.444Z,95419.00
2023-04-07T04:24:54.994Z,95420.78
2023-04-07T04:27:26.453Z,95418.81
2023-04-07T04:30:01.529Z,95420.78
2023-04-07T04:32:38.379Z,95421.59
2023-04-07T04:35:07.412Z,95426.34
2023-04-07T04:37:42.358Z,95415.53
2023-04-07T04:40:12.930Z,95421.59
2023-04-07T04:42:42.481Z,95421.59
2023-04-07T04:45:12.679Z,95419.97
2023-04-07T04:47:45.183Z,95423.56
2023-04-07T04:50:12.937Z,95424.22
2023-04-07T04:52:43.739Z,95423.25
2023-04-07T04:55:18.954Z,95422.25
2023-04-07T04:57:49.012Z,95425.88
2023-04-07T05:00:23.065Z,95421.59
2023-04-07T05:02:57.223Z,95420.63
2023-04-07T05:05:25.787Z,95424.88
2023-04-07T05:07:56.358Z,95419.28
2023-04-07T05:10:26.893Z,95418.81
2023-04-07T05:12:57.123Z,95411.44
2023-04-07T05:15:24.689Z,95413.09
2023-04-07T05:17:52.621Z,95412.41
2023-04-07T05:20:27.246Z,95406.88
2023-04-07T05:22:55.793Z,95406.53
2023-04-07T05:25:29.085Z,95410.44
2023-04-07T05:28:01.827Z,95401.94
2023-04-07T05:30:29.586Z,95401.47
2023-04-07T05:32:57.635Z,95404.22
2023-04-07T05:35:47.235Z,95402.28
2023-04-07T05:38:16.883Z,95403.56
2023-04-07T05:40:44.583Z,95398.81
2023-04-07T05:43:20.378Z,95405.84
2023-04-07T05:45:48.739Z,95400.44
2023-04-07T05:48:16.588Z,95397.00
2023-04-07T05:50:46.930Z,95395.69
2023-04-07T05:53:18.229Z,95401.91
2023-04-07T05:55:45.902Z,95391.72
2023-04-07T05:58:23.362Z,95388.44
2023-04-07T06:00:54.818Z,95392.19
2023-04-07T06:03:22.892Z,95387.25
2023-04-07T06:06:00.477Z,95395.31
2023-04-07T06:08:28.486Z,95388.75
2023-04-07T06:10:57.094Z,95387.47
2023-04-07T06:13:26.345Z,95399.59
2023-04-07T06:15:55.796Z,95397.44
2023-04-07T06:18:23.582Z,95397.13
2023-04-07T06:20:51.143Z,95387.09
2023-04-07T06:23:19.431Z,95391.31
2023-04-07T06:25:51.673Z,95387.06
2023-04-07T06:28:19.558Z,95388.22
2023-04-07T06:30:48.631Z,95381.47
2023-04-07T06:33:16.970Z,95390.13
2023-04-07T06:35:44.601Z,95386.34
2023-04-07T06:38:13.725Z,95383.53
2023-04-07T06:40:41.260Z,95377.38
2023-04-07T06:43:08.880Z,95383.66
2023-04-07T06:45:43.840Z,95385.16
2023-04-07T06:48:12.903Z,95395.81
2023-04-07T06:50:40.601Z,95393.13
2023-04-07T06:53:08.598Z,95393.50
2023-04-07T06:55:36.359Z,95387.88
2023-04-07T06:58:04.108Z,95381.31
2023-04-07T07:00:31.718Z,95383.66
2023-04-07T07:02:59.566Z,95379.75
2023-04-07T07:05:28.560Z,95380.06
2023-04-07T07:07:56.238Z,95382.09
2023-04-07T07:10:23.830Z,95384.78
2023-04-07T07:12:52.518Z,95380.50
2023-04-07T07:15:20.303Z,95378.50
2023-04-07T07:17:47.942Z,95382.84
2023-04-07T07:20:15.766Z,95384.59
2023-04-07T07:22:44.717Z,95385.34
2023-04-07T07:25:12.523Z,95385.88
2023-04-07T07:27:40.117Z,95383.09
2023-04-07T07:30:08.867Z,95383.47
2023-04-07T07:32:36.479Z,95381.50
2023-04-07T07:35:04.300Z,95372.81
2023-04-07T07:37:31.848Z,95376.00
2023-04-07T07:40:00.936Z,95374.84
2023-04-07T07:42:28.492Z,95382.63
2023-04-07T07:44:56.102Z,95382.09
2023-04-07T07:47:24.079Z,95378.72
2023-04-07T07:49:51.647Z,95382.09
2023-04-07T07:52:20.648Z,95376.66
2023-04-07T07:54:49.276Z,95371.50
2023-04-07T07:57:18.309Z,95367.75
2023-04-07T07:59:46.741Z,95365.25
2023-04-07T08:02:14.298Z,95364.16
2023-04-07T08:04:42.348Z,95374.78
2023-04-07T08:07:11.462Z,95370.19
2023-04-07T08:09:39.306Z,95368.41
2023-04-07T08:12:06.861Z,95367.94
2023-04-07T08:14:36.395Z,95369.16
2023-04-07T08:17:03.947Z,95369.94
2023-04-07T08:19:31.631Z,95355.81
2023-04-07T08:21:59.239Z,95365.41
2023-04-07T08:24:26.926Z,95365.88
2023-04-07T08:26:54.506Z,95356.88
2023-04-07T08:29:22.322Z,95363.81
2023-04-07T08:31:51.257Z,95357.41
2023-04-07T08:34:20.847Z,95354.22
2023-04-07T08:36:48.480Z,95354.03
2023-04-07T08:39:16.334Z,95352.41
2023-04-07T08:41:45.140Z,95351.38
2023-04-07T08:44:14.159Z,95350.94
2023-04-07T08:46:42.420Z,95349.25
2023-04-07T08:49:14.055Z,95342.16
2023-04-07T08:51:46.444Z,95345.25
2023-04-07T08:54:16.001Z,95340.00
2023-04-07T08:56:44.290Z,95338.28
2023-04-07T08:59:14.308Z,95342.94
2023-04-07T09:01:42.813Z,95349.38
2023-04-07T09:04:12.051Z,95348.56
2023-04-07T09:06:39.742Z,95338.91
2023-04-07T09:09:07.311Z,95338.84
2023-04-07T09:11:37.219Z,95339.78
2023-04-07T09:14:04.954Z,95336.06
2023-04-07T09:16:32.939Z,95336.63
2023-04-07T09:19:00.672Z,95335.16
2023-04-07T09:21:48.349Z,95334.59
2023-04-07T09:24:23.775Z,95326.72
2023-04-07T09:26:51.475Z,95324.72
2023-04-07T09:29:22.525Z,95327.56
2023-04-07T09:31:52.026Z,95318.91
2023-04-07T09:34:26.528Z,95323.88
2023-04-07T09:36:55.740Z,95328.59
2023-04-07T09:39:23.672Z,95321.44
2023-04-07T09:41:52.009Z,95325.31
2023-04-07T09:44:19.881Z,95327.94
2023-04-07T09:46:51.256Z,95324.31
2023-04-07T09:49:20.302Z,95325.59
2023-04-07T09:51:59.766Z,95327.41
2023-04-07T09:54:35.582Z,95335.81
2023-04-07T09:57:04.349Z,95327.53
2023-04-07T09:59:33.870Z,95339.25
2023-04-07T10:02:02.241Z,95323.97
2023-04-07T10:04:30.937Z,95334.75
2023-04-07T10:07:01.021Z,95324.41
2023-04-07T10:09:30.002Z,95332.38
2023-04-07T10:11:59.712Z,95330.22
2023-04-07T10:17:19.198Z,95328.22
2023-04-07T10:19:47.909Z,95331.63
2023-04-07T10:22:18.664Z,95328.41
2023-04-07T10:24:54.978Z,95326.41
2023-04-07T10:27:25.132Z,95331.94
2023-04-07T10:29:53.974Z,95333.94
2023-04-07T10:32:21.780Z,95326.63
2023-04-07T10:35:02.329Z,95329.03
2023-04-07T10:37:33.380Z,95340.03
2023-04-07T10:40:29.177Z,95335.97
2023-04-07T10:42:57.627Z,95329.81
2023-04-07T10:46:02.583Z,95338.06
2023-04-07T10:48:33.068Z,95338.63
2023-04-07T10:51:15.876Z,95338.25
2023-04-07T10:54:20.946Z,95333.34
2023-04-07T10:57:13.294Z,95333.63
2023-04-07T10:59:47.089Z,95332.09
2023-04-07T11:02:35.083Z,95333.56
2023-04-07T11:05:03.313Z,95337.81
2023-04-07T11:08:05.507Z,95334.41
2023-04-07T11:10:33.149Z,95330.47
2023-04-07T11:13:10.278Z,95331.31
2023-04-07T11:15:40.745Z,95337.19
2023-04-07T11:18:15.108Z,95333.22
2023-04-07T11:20:46.010Z,95330.06
2023-04-07T11:23:14.407Z,95338.53
2023-04-07T11:25:45.346Z,95332.81
2023-04-07T11:28:14.923Z,95329.25
2023-04-07T11:30:48.753Z,95335.25
2023-04-07T11:33:18.537Z,95336.97
2023-04-07T11:35:55.743Z,95336.53
2023-04-07T11:38:24.992Z,95330.00
2023-04-07T11:40:52.751Z,95333.38
2023-04-07T11:43:23.761Z,95332.31
2023-04-07T11:46:08.462Z,95333.38
2023-04-07T11:48:38.120Z,95337.91
2023-04-07T11:51:06.884Z,95337.75
2023-04-07T11:53:37.943Z,95336.75
2023-04-07T11:56:09.552Z,95333.81
2023-04-07T11:58:38.619Z,95336.06
2023-04-07T12:01:09.094Z,95335.31
2023-04-07T12:03:38.443Z,95340.94
2023-04-07T12:06:07.101Z,95334.63
2023-04-07T12:08:41.837Z,95329.06
2023-04-07T12:11:10.948Z,95331.66
2023-04-07T12:13:41.282Z,95337.88
2023-04-07T12:16:09.025Z,95339.16
2023-04-07T12:18:37.163Z,95335.09
2023-04-07T12:21:05.401Z,95338.41
2023-04-07T12:23:33.280Z,95334.53
2023-04-07T12:26:01.169Z,95337.66
2023-04-07T12:28:28.849Z,95335.13
2023-04-07T12:30:57.817Z,95343.78
2023-04-07T12:33:25.900Z,95337.41
2023-04-07T12:35:53.612Z,95332.38
2023-04-07T12:38:21.821Z,95330.06
2023-04-07T12:40:49.469Z,95330.59
2023-04-07T12:43:17.141Z,95331.63
2023-04-07T12:45:44.746Z,95327.34
2023-04-07T12:48:13.851Z,95323.47
2023-04-07T12:50:41.598Z,95321.75
2023-04-07T12:53:09.419Z,95318.41
2023-04-07T12:55:37.519Z,95321.47
2023-04-07T12:58:05.658Z,95321.75
2023-04-07T13:00:33.230Z,95325.69
2023-04-07T13:03:00.943Z,95319.72
2023-04-07T13:05:30.295Z,95322.97
2023-04-07T13:07:57.888Z,95324.84
2023-04-07T13:10:25.459Z,95325.88
2023-04-07T13:12:53.269Z,95322.00
2023-04-07T13:15:20.958Z,95312.00
2023-04-07T13:17:48.818Z,95317.47
2023-04-07T13:20:19.803Z,95313.41
2023-04-07T13:23:02.742Z,95321.75
2023-04-07T13:25:33.678Z,95317.28
2023-04-07T13:28:01.281Z,95317.19
2023-04-07T13:30:28.930Z,95313.94
2023-04-07T13:32:57.088Z,95313.25
2023-04-07T13:35:24.763Z,95311.97
2023-04-07T13:37:54.169Z,95313.81
2023-04-07T13:40:21.734Z,95307.06
2023-04-07T13:42:49.308Z,95313.47
2023-04-07T13:45:16.885Z,95301.28
2023-04-07T13:47:44.659Z,95308.78
2023-04-07T13:50:12.409Z,95305.09
2023-04-07T13:52:40.024Z,95310.44
2023-04-07T13:55:10.346Z,95311.50
2023-04-07T13:57:38.139Z,95310.00
2023-04-07T14:00:07.350Z,95308.47
2023-04-07T14:02:36.662Z,95301.41
2023-04-07T14:05:04.718Z,95305.25
2023-04-07T14:07:32.286Z,95308.94
2023-04-07T14:10:00.134Z,95314.06
2023-04-07T14:12:29.138Z,95309.75
2023-04-07T14:14:57.149Z,95318.06
2023-04-07T14:17:24.760Z,95324.28
2023-04-07T14:19:52.482Z,95316.50
2023-04-07T14:22:20.054Z,95331.84
2023-04-07T14:24:47.873Z,95316.78
2023-04-07T14:27:20.635Z,95330.09
2023-04-07T14:29:49.792Z,95321.47
2023-04-07T14:32:17.896Z,95319.31
2023-04-07T14:34:45.803Z,95319.38
2023-04-07T14:37:14.063Z,95330.19
2023-04-07T14:39:48.517Z,95319.81
2023-04-07T14:42:23.425Z,95317.50
2023-04-07T14:44:53.405Z,95325.16
2023-04-07T14:47:21.072Z,95326.50
2023-04-07T14:49:51.855Z,95324.91
2023-04-07T14:52:21.611Z,95324.44
2023-04-07T14:54:49.621Z,95321.00
2023-04-07T14:57:17.322Z,95324.63
2023-04-07T14:59:45.477Z,95320.09
2023-04-07T15:02:14.483Z,95324.81
2023-04-07T15:04:42.573Z,95316.22
2023-04-07T15:07:10.193Z,95329.31
2023-04-07T15:09:37.894Z,95324.22
2023-04-07T15:12:05.665Z,95319.16
2023-04-07T15:14:33.323Z,95316.88
2023-04-07T15:17:00.885Z,95320.81
2023-04-07T15:19:30.919Z,95323.47
2023-04-07T15:21:58.493Z,95319.47
2023-04-07T15:24:26.216Z,95330.56
2023-04-07T15:26:53.783Z,95330.81
2023-04-07T15:29:21.656Z,95332.66
2023-04-07T15:31:49.335Z,95325.59
2023-04-07T15:34:17.176Z,95324.25
2023-04-07T15:36:46.124Z,95328.84
2023-04-07T15:39:14.082Z,95328.50
2023-04-07T15:41:42.075Z,95334.44
2023-04-07T15:44:09.796Z,95330.84
2023-04-07T15:46:37.428Z,95328.78
2023-04-07T15:49:05.074Z,95328.34
2023-04-07T15:51:32.843Z,95341.06
2023-04-07T15:54:02.422Z,95335.75
2023-04-07T15:56:30.266Z,95346.47
2023-04-07T15:58:57.832Z,95344.47
2023-04-07T16:01:25.972Z,95337.16
2023-04-07T16:03:53.840Z,95346.94
2023-04-07T16:06:22.114Z,95347.91
2023-04-07T16:08:49.708Z,95350.25
2023-04-07T16:11:18.890Z,95351.56
2023-04-07T16:13:46.758Z,95358.97
2023-04-07T16:16:14.772Z,95350.00
2023-04-07T16:18:42.401Z,95352.13
2023-04-07T16:21:11.017Z,95359.97
2023-04-07T16:23:38.672Z,95360.41
2023-04-07T16:26:06.521Z,95365.56
2023-04-07T16:28:35.582Z,95370.06
2023-04-07T16:31:05.947Z,95372.47
2023-04-07T16:33:33.537Z,95370.09
2023-04-07T16:36:01.161Z,95373.78
2023-04-07T16:38:29.098Z,95378.25
2023-04-07T16:41:03.938Z,95372.03
2023-04-07T16:43:32.285Z,95391.69
2023-04-07T16:46:01.602Z,95381.63
2023-04-07T16:48:29.546Z,95385.81
2023-04-07T16:50:57.582Z,95387.88
2023-04-07T16:53:25.209Z,95388.53
2023-04-07T16:55:53.205Z,95389.78
2023-04-07T16:58:20.952Z,95386.31
2023-04-07T17:00:48.742Z,95399.38
2023-04-07T17:03:17.728Z,95388.41
2023-04-07T17:05:47.052Z,95398.41
2023-04-07T17:08:14.638Z,95402.28
2023-04-07T17:10:42.493Z,95398.63
2023-04-07T17:13:10.087Z,95407.22
2023-04-07T17:15:38.768Z,95405.75
2023-04-07T17:18:06.538Z,95407.59
2023-04-07T17:20:35.622Z,95413.69
2023-04-07T17:23:03.252Z,95415.75
2023-04-07T17:25:30.919Z,95421.06
2023-04-07T17:27:58.513Z,95414.94
2023-04-07T17:30:26.286Z,95423.88
2023-04-07T17:32:54.069Z,95416.94
2023-04-07T17:35:22.805Z,95423.44
2023-04-07T17:37:52.989Z,95433.84
2023-04-07T17:40:21.080Z,95432.00
2023-04-07T17:42:48.663Z,95431.97
2023-04-07T17:45:17.744Z,95428.31
2023-04-07T17:47:46.151Z,95437.84
2023-04-07T17:50:14.446Z,95441.28
2023-04-07T17:52:42.270Z,95445.56
2023-04-07T17:55:12.383Z,95454.25
2023-04-07T17:57:42.921Z,95454.22
2023-04-07T18:00:11.232Z,95458.50
2023-04-07T18:02:42.802Z,95455.81
2023-04-07T18:05:11.843Z,95462.72
2023-04-07T18:07:39.453Z,95466.72
2023-04-07T18:10:08.145Z,95467.50
2023-04-07T18:12:37.308Z,95470.75
2023-04-07T18:15:05.754Z,95474.97
2023-04-07T18:17:33.855Z,95483.28
2023-04-07T18:20:02.134Z,95482.88
2023-04-07T18:22:29.742Z,95489.34
2023-04-07T18:24:57.304Z,95485.47
2023-04-07T18:27:26.840Z,95486.69
2023-04-07T18:29:56.179Z,95495.41
2023-04-07T18:32:24.177Z,95498.06
2023-04-07T18:34:53.478Z,95498.56
2023-04-07T18:37:22.133Z,95496.09
2023-04-07T18:39:49.699Z,95499.50
2023-04-07T18:42:17.475Z,95507.81
2023-04-07T18:44:45.327Z,95504.84
2023-04-07T18:47:15.064Z,95516.50
2023-04-07T18:49:42.635Z,95516.38
2023-04-07T18:52:10.597Z,95522.25
2023-04-07T18:54:38.293Z,95526.69
2023-04-07T18:57:06.006Z,95529.25
2023-04-07T18:59:33.571Z,95528.34
2023-04-07T19:02:01.286Z,95525.28
2023-04-07T19:04:30.288Z,95532.28
2023-04-07T19:06:57.920Z,95540.31
2023-04-07T19:09:25.873Z,95530.97
2023-04-07T19:11:53.518Z,95535.59
2023-04-07T19:14:21.348Z,95540.03
2023-04-07T19:16:49.071Z,95534.97
2023-04-07T19:19:17.313Z,95548.25
2023-04-07T19:21:46.277Z,95544.50
2023-04-07T19:24:14.383Z,95547.53
2023-04-07T19:26:42.924Z,95541.88
2023-04-07T19:29:12.580Z,95552.53
2023-04-07T19:31:40.383Z,95549.25
2023-04-07T19:34:08.098Z,95556.50
2023-04-07T19:36:35.695Z,95555.69
2023-04-07T19:39:05.366Z,95563.97
2023-04-07T19:41:33.062Z,95566.50
2023-04-07T19:44:01.085Z,95571.34
2023-04-07T19:46:28.925Z,95576.13
2023-04-07T19:48:57.118Z,95572.25
2023-04-07T19:51:24.698Z,95577.22
2023-04-07T19:53:52.637Z,95580.22
2023-04-07T19:56:21.575Z,95577.59
2023-04-07T19:58:49.480Z,95576.59
2023-04-07T20:01:17.885Z,95573.16
2023-04-07T20:03:46.912Z,95576.34
2023-04-07T20:06:15.208Z,95579.69
2023-04-07T20:08:43.297Z,95584.56
2023-04-07T20:11:12.718Z,95594.13
2023-04-07T20:13:42.327Z,95579.56
2023-04-07T20:16:10.154Z,95590.34
2023-04-07T20:18:37.902Z,95586.22
2023-04-07T20:21:06.849Z,95587.41
2023-04-07T20:23:34.987Z,95594.38
2023-04-07T20:26:02.626Z,95588.66
2023-04-07T20:28:30.507Z,95591.41
2023-04-07T20:31:00.040Z,95588.50
2023-04-07T20:33:28.025Z,95595.44
2023-04-07T20:35:55.679Z,95589.56
2023-04-07T20:38:23.333Z,95603.09
2023-04-07T20:40:50.918Z,95602.50
2023-04-07T20:43:21.955Z,95608.34
2023-04-07T20:45:49.667Z,95600.06
2023-04-07T20:48:23.569Z,95601.00
2023-04-07T20:50:51.750Z,95600.06
2023-04-07T20:53:19.429Z,95596.63
2023-04-07T20:55:47.308Z,95600.50
2023-04-07T20:58:15.021Z,95601.81
2023-04-07T21:00:42.590Z,95603.66
2023-04-07T21:03:10.654Z,95610.69
2023-04-07T21:05:39.956Z,95615.97
2023-04-07T21:08:07.599Z,95614.59
2023-04-07T21:10:35.329Z,95621.25
2023-04-07T21:13:02.973Z,95616.00
2023-04-07T21:15:30.728Z,95613.00
2023-04-07T21:17:58.452Z,95614.59
2023-04-07T21:20:26.299Z,95614.19
2023-04-07T21:22:55.220Z,95614.31
2023-04-07T21:25:23.076Z,95616.41
2023-04-07T21:27:52.035Z,95608.69
2023-04-07T21:30:21.492Z,95613.50
2023-04-07T21:32:49.190Z,95612.00
2023-04-07T21:35:17.507Z,95604.84
2023-04-07T21:37:45.278Z,95610.50
2023-04-07T21:40:14.252Z,95608.75
2023-04-07T21:42:41.873Z,95603.19
2023-04-07T21:45:10.975Z,95604.44
2023-04-07T21:47:38.624Z,95603.97
2023-04-07T21:50:07.338Z,95605.63
2023-04-07T21:52:35.274Z,95615.19
2023-04-07T21:55:02.973Z,95612.25
2023-04-07T21:57:31.963Z,95606.31
2023-04-07T21:59:59.549Z,95608.00
2023-04-07T22:02:27.263Z,95607.03
2023-04-07T22:04:55.405Z,95619.06
2023-04-07T22:07:22.958Z,95613.25
2023-04-07T22:09:50.518Z,95611.66
2023-04-07T22:12:18.113Z,95620.34
2023-04-07T22:14:47.164Z,95619.34
2023-04-07T22:17:14.744Z,95617.34
2023-04-07T22:19:42.436Z,95623.28
2023-04-07T22:22:10.011Z,95629.69
2023-04-07T22:24:37.844Z,95629.41
2023-04-07T22:27:05.786Z,95630.38
2023-04-07T22:29:33.882Z,95632.38
2023-04-07T22:32:02.782Z,95627.78
2023-04-07T22:34:30.475Z,95628.59
2023-04-07T22:36:58.062Z,95626.44
2023-04-07T22:39:26.706Z,95637.31
2023-04-07T22:41:54.443Z,95634.69
2023-04-07T22:44:22.039Z,95631.75
2023-04-07T22:46:49.620Z,95634.38
2023-04-07T22:49:18.882Z,95630.44
2023-04-07T22:51:48.455Z,95631.41
2023-04-07T22:54:16.616Z,95634.38
2023-04-07T22:56:45.910Z,95634.03
2023-04-07T22:59:13.479Z,95629.31
2023-04-07T23:01:41.397Z,95636.19
2023-04-07T23:04:09.018Z,95638.16
2023-04-07T23:06:37.922Z,95636.50
2023-04-07T23:09:05.796Z,95639.28
2023-04-07T23:11:33.485Z,95634.38
2023-04-07T23:14:04.795Z,95640.94
2023-04-07T23:16:32.919Z,95640.44
2023-04-07T23:19:01.013Z,95651.59
2023-04-07T23:21:31.289Z,95647.03
2023-04-07T23:24:00.730Z,95648.81
2023-04-07T23:26:28.530Z,95647.81
2023-04-07T23:28:56.107Z,95651.44
2023-04-07T23:31:24.004Z,95656.97
2023-04-07T23:33:51.591Z,95655.34
2023-04-07T23:36:19.272Z,95660.88
2023-04-07T23:38:47.101Z,95657.63
2023-04-07T23:41:16.408Z,95656.13
2023-04-07T23:43:43.962Z,95655.75
2023-04-07T23:46:11.613Z,95665.03
2023-04-07T23:48:39.295Z,95668.38
2023-04-07T23:51:07.270Z,95661.50
2023-04-07T23:53:34.832Z,95662.00
2023-04-07T23:56:02.518Z,95654.28
2023-04-07T23:58:31.434Z,95657.88
